Robore, Bolivia
Current Conditions -  °F | °C
As of 12:00 PM on Friday 19 Dec 2014 (Local Time) from SLRB Reporting Station
Scattered Clouds Scattered Clouds  
Wind Chill: 88°   Ceiling: Unl
Heat Index: 98°   Visibility: 6mi
Dew Point: 75°   Wind: 3mph
Humidity: 66%   Direction: 360°N
Pressure: 29.8"   Gusts: NA
Location:  18.33°S, 59.76°W
Report Text: SLRB 191600Z 36003KT 9999 SCT020 31/24 Q1009
Loading
Personal Weather Stations






























Interactive Weather Map New forecast layout! Learn more

10-Day Weather Forecast

Advertisements
Track Severe Weather on mobile